Terminal Aerodrome Forecast
Issued by NWS

Home | Current Version | Previous Version | Text Only | Print | Product List | Glossary On
Versions: 1 2 3 4 5 6 7 8 9 10 11 12 13 14 15 16 17
000
FTUS44 KMAF 231100
TAFPEQ
TAF
KPEQ 231120Z 2312/2412 24015G22KT P6SM SCT200
     FM231700 29025G35KT P6SM SCT200
     FM240100 31010KT P6SM SKC=

USA.gov is the U.S. government's official web portal to all federal, state and local government web resources and services.